秋田 の空港の天気 - METARとTAF

秋田空港 ( RJSK / AXT ) - 秋田県秋田市
飛行場実況気象(Metar)
観測時間05/26 21:00 JST (05/26 12:00 UTC)
風向・風速東南東 4m/s
視程10km以上
天気現象
なし
気温20℃
湿度68%
気圧1006hPa
METARRJSK 261200Z 12007KT CAVOK 20/14 Q1006
過去の天気等 Google飛行場航空写真 Wunderground天気予報

過去48時間のMETAR

飛行場予報(TAF)
発表時間: 5/27 02:12 JST (5/26 17:12 UTC)
予報対象時間: 27日3時 JST ~ 28日9時 JST
風向・風速南東 5m/s
視程8000m
天気現象弱いしゅう雨
少しの雲 雲底高度 300m
全天の8割程度の雲 雲底高度 610m
全天の8割程度の雲 雲底高度 910m
27日6時 JST ~ 27日9時 JST に一時的に
視程4000m
天気現象弱いしゅう雨 もや
少しの雲 雲底高度 150m
全天の8割程度の雲 雲底高度 240m
全天の8割程度の雲 雲底高度 460m
27日9時 JST ~ 27日14時 JST に一時的に
視程3000m
天気現象しゅう雨 もや
少しの雲 雲底高度 60m
全天の8割程度の雲 雲底高度 150m
全天の8割程度の雲 雲底高度 240m
27日12時 JST ~ 27日14時 JST に徐々に
風向・風速西 4m/s
TAF RJSK 261712Z 2618/2800 13010KT 8000 -SHRA FEW010 BKN020 BKN030
TEMPO 2621/2700 4000 -SHRA BR FEW005 BKN008 BKN015
TEMPO 2700/2705 3000 SHRA BR FEW002 BKN005 BKN008
BECMG 2703/2705 27008KT
日本の空港のMETAR・TAFへのリンク

RJTT 東京国際空港
RJAA 新東京国際空港
RJBB 関西国際空港
RJOO 大阪空港
RJGG 中部国際空港
RJCC 新千歳空港
RJFF 福岡空港
ROAH 那覇空港


RJEC 旭川空港
RJCH 函館空港
RJCK 釧路空港
RJCM 女満別空港
RJCB 帯広空港
RJSA 青森空港
RJSS 仙台空港
RJSK 秋田空港
RJSF 福島空港
RJAH 茨城空港
RJSN 新潟空港
RJNT 富山空港
RJNK 小松飛行場
RJNS 静岡空港
RJOH 美保飛行場
RJOC 出雲空港
RJOB 岡山空港
RJOA 広島空港
RJOI 岩国飛行場
RJOT 高松空港
RJOM 松山空港
RJOK 高知空港
RJFR 北九州空港
RJFT 熊本空港
RJFU 長崎空港
RJFS 佐賀空港
RJFO 大分空港
RJFM 宮崎空港
RJFK 鹿児島空港
ROIG 石垣島空港
RJTY 横田飛行場
ROTM 普天間飛行場
RODN 嘉手納飛行場